createdAt,value
2023-12-03T00:00:35.704Z,41
2023-12-03T00:03:06.825Z,45
2023-12-03T00:05:37.713Z,41
2023-12-03T00:08:08.417Z,43
2023-12-03T00:10:38.748Z,33
2023-12-03T00:13:09.655Z,37
2023-12-03T00:15:39.998Z,43
2023-12-03T00:18:10.260Z,34
2023-12-03T00:20:40.343Z,39
2023-12-03T00:23:11.115Z,43
2023-12-03T00:25:41.537Z,33
2023-12-03T00:28:11.919Z,36
2023-12-03T00:30:42.928Z,37
2023-12-03T00:33:13.418Z,33
2023-12-03T00:35:44.482Z,25
2023-12-03T00:38:14.971Z,41
2023-12-03T00:40:45.520Z,34
2023-12-03T00:43:15.906Z,35
2023-12-03T00:45:46.447Z,36
2023-12-03T00:48:17.517Z,39
2023-12-03T00:50:47.783Z,31
2023-12-03T00:53:17.808Z,31
2023-12-03T00:55:48.090Z,37
2023-12-03T00:58:18.951Z,40
2023-12-03T01:00:49.744Z,31
2023-12-03T01:03:20.442Z,35
2023-12-03T01:05:50.644Z,39
2023-12-03T01:08:21.287Z,36
2023-12-03T01:10:52.767Z,39
2023-12-03T01:13:23.235Z,34
2023-12-03T01:15:53.817Z,35
2023-12-03T01:18:25.142Z,35
2023-12-03T01:20:55.732Z,36
2023-12-03T01:23:26.048Z,35
2023-12-03T01:25:57.621Z,31
2023-12-03T01:28:27.781Z,33
2023-12-03T01:30:58.586Z,28
2023-12-03T01:33:29.370Z,27
2023-12-03T01:36:00.043Z,32
2023-12-03T01:38:30.970Z,34
2023-12-03T01:41:01.365Z,39
2023-12-03T01:43:32.704Z,37
2023-12-03T01:46:03.182Z,42
2023-12-03T01:48:33.664Z,32
2023-12-03T01:51:03.682Z,33
2023-12-03T01:53:34.257Z,32
2023-12-03T01:56:05.883Z,47
2023-12-03T01:58:36.085Z,46
2023-12-03T02:01:06.867Z,41
2023-12-03T02:03:37.355Z,47
2023-12-03T02:06:09.304Z,45
2023-12-03T02:08:40.074Z,43
2023-12-03T02:11:11.015Z,47
2023-12-03T02:13:41.647Z,51
2023-12-03T02:16:12.647Z,43
2023-12-03T02:18:43.129Z,47
2023-12-03T02:21:13.460Z,39
2023-12-03T02:23:44.062Z,45
2023-12-03T02:26:15.043Z,41
2023-12-03T02:28:45.508Z,44
2023-12-03T02:31:15.672Z,41
2023-12-03T02:33:46.273Z,40
2023-12-03T02:36:16.869Z,56
2023-12-03T02:38:47.740Z,52
2023-12-03T02:41:17.926Z,37
2023-12-03T02:43:48.744Z,43
2023-12-03T02:46:18.736Z,35
2023-12-03T02:48:49.460Z,44
2023-12-03T02:51:19.841Z,40
2023-12-03T02:53:51.142Z,39
2023-12-03T02:56:22.102Z,31
2023-12-03T02:58:52.510Z,35
2023-12-03T03:01:22.907Z,37
2023-12-03T03:03:53.548Z,45
2023-12-03T03:06:23.931Z,31
2023-12-03T03:08:54.473Z,35
2023-12-03T03:11:25.888Z,41
2023-12-03T03:13:56.188Z,43
2023-12-03T03:16:26.403Z,32
2023-12-03T03:18:56.934Z,38
2023-12-03T03:21:28.193Z,33
2023-12-03T03:23:58.598Z,36
2023-12-03T03:26:29.021Z,38
2023-12-03T03:28:59.214Z,31
2023-12-03T03:31:29.906Z,34
2023-12-03T03:34:01.185Z,38
2023-12-03T03:36:32.089Z,31
2023-12-03T03:39:02.491Z,39
2023-12-03T03:41:32.951Z,32
2023-12-03T03:44:03.372Z,36
2023-12-03T03:46:33.852Z,31
2023-12-03T03:49:04.912Z,29
2023-12-03T03:51:36.276Z,35
2023-12-03T03:54:08.288Z,31
2023-12-03T03:56:38.776Z,35
2023-12-03T03:59:09.083Z,35
2023-12-03T04:01:39.231Z,32
2023-12-03T04:04:09.958Z,32
2023-12-03T04:06:40.761Z,35
2023-12-03T04:09:11.290Z,29
2023-12-03T04:11:42.447Z,32
2023-12-03T04:14:12.880Z,27
2023-12-03T04:16:43.569Z,35
2023-12-03T04:19:13.290Z,33
2023-12-03T04:21:43.947Z,33
2023-12-03T04:24:15.167Z,26
2023-12-03T04:26:45.709Z,32
2023-12-03T04:29:17.113Z,34
2023-12-03T04:31:47.727Z,39
2023-12-03T04:34:18.629Z,25
2023-12-03T04:36:49.570Z,26
2023-12-03T04:39:20.436Z,27
2023-12-03T04:41:51.301Z,32
2023-12-03T04:44:22.412Z,25
2023-12-03T04:46:53.437Z,35
2023-12-03T04:49:24.726Z,30
2023-12-03T04:51:56.960Z,30
2023-12-03T04:54:27.688Z,29
2023-12-03T04:56:58.801Z,30
2023-12-03T04:59:26.869Z,36
2023-12-03T05:01:57.145Z,26
2023-12-03T05:04:27.735Z,23
2023-12-03T05:06:59.525Z,36
2023-12-03T05:09:29.993Z,28
2023-12-03T05:12:00.644Z,28
2023-12-03T05:14:31.489Z,34
2023-12-03T05:17:02.491Z,28
2023-12-03T05:19:33.792Z,29
2023-12-03T05:22:04.823Z,31
2023-12-03T05:24:36.412Z,32
2023-12-03T05:27:07.011Z,30
2023-12-03T05:29:37.367Z,29
2023-12-03T05:32:07.630Z,40
2023-12-03T05:34:38.156Z,52
2023-12-03T05:37:09.893Z,28
2023-12-03T05:39:41.397Z,40
2023-12-03T05:42:11.692Z,33
2023-12-03T05:44:42.043Z,35
2023-12-03T05:47:12.541Z,33
2023-12-03T05:49:42.671Z,25
2023-12-03T05:52:13.080Z,31
2023-12-03T05:54:43.680Z,36
2023-12-03T05:57:14.366Z,38
2023-12-03T05:59:45.636Z,37
2023-12-03T06:02:15.754Z,32
2023-12-03T06:04:46.093Z,35
2023-12-03T06:07:17.092Z,33
2023-12-03T06:09:47.491Z,52
2023-12-03T06:12:18.171Z,29
2023-12-03T06:14:48.557Z,20
2023-12-03T06:17:19.147Z,31
2023-12-03T06:19:49.429Z,39
2023-12-03T06:22:20.049Z,40
2023-12-03T06:24:52.261Z,24
2023-12-03T06:27:23.660Z,32
2023-12-03T06:29:54.584Z,50
2023-12-03T06:32:25.853Z,35
2023-12-03T06:34:56.151Z,29
2023-12-03T06:37:28.322Z,40
2023-12-03T06:39:59.272Z,27
2023-12-03T06:42:29.965Z,27
2023-12-03T06:44:59.424Z,25
2023-12-03T06:47:29.512Z,30
2023-12-03T06:49:59.927Z,29
2023-12-03T06:52:30.681Z,43
2023-12-03T06:55:01.297Z,40
2023-12-03T06:57:31.633Z,33
2023-12-03T07:00:02.728Z,38
2023-12-03T07:02:33.386Z,27
2023-12-03T07:05:03.675Z,31
2023-12-03T07:07:34.313Z,34
2023-12-03T07:10:05.338Z,33
2023-12-03T07:12:35.973Z,31
2023-12-03T07:15:06.284Z,35
2023-12-03T07:17:36.608Z,34
2023-12-03T07:20:07.298Z,35
2023-12-03T07:22:37.992Z,35
2023-12-03T07:25:08.191Z,41
2023-12-03T07:27:39.203Z,34
2023-12-03T07:30:09.617Z,31
2023-12-03T07:32:40.681Z,49
2023-12-03T07:35:10.716Z,53
2023-12-03T07:37:41.396Z,47
2023-12-03T07:40:12.344Z,41
2023-12-03T07:42:41.538Z,43
2023-12-03T07:45:12.616Z,42
2023-12-03T07:47:43.395Z,30
2023-12-03T07:50:13.483Z,40
2023-12-03T07:52:44.263Z,29
2023-12-03T07:55:14.588Z,61
2023-12-03T07:57:45.771Z,33
2023-12-03T08:00:16.321Z,35
2023-12-03T08:02:47.620Z,36
2023-12-03T08:05:18.345Z,41
2023-12-03T08:07:49.541Z,36
2023-12-03T08:10:20.366Z,35
2023-12-03T08:12:50.933Z,39
2023-12-03T08:15:21.740Z,44
2023-12-03T08:17:52.091Z,34
2023-12-03T08:20:22.550Z,33
2023-12-03T08:22:53.099Z,36
2023-12-03T08:25:24.028Z,34
2023-12-03T08:27:54.403Z,79
2023-12-03T08:30:25.098Z,32
2023-12-03T08:32:56.217Z,43
2023-12-03T08:35:26.421Z,37
2023-12-03T08:37:58.770Z,32
2023-12-03T08:40:29.138Z,43
2023-12-03T08:42:59.358Z,31
2023-12-03T08:45:29.552Z,35
2023-12-03T08:47:59.839Z,39
2023-12-03T08:50:30.126Z,36
2023-12-03T08:53:00.174Z,28
2023-12-03T08:55:30.356Z,33
2023-12-03T08:58:00.579Z,41
2023-12-03T09:00:30.975Z,75
2023-12-03T09:03:01.512Z,34
2023-12-03T09:05:31.680Z,49
2023-12-03T09:08:01.873Z,67
2023-12-03T09:10:31.953Z,57
2023-12-03T09:13:02.372Z,31
2023-12-03T09:15:33.716Z,22
2023-12-03T09:18:04.414Z,31
2023-12-03T09:20:33.167Z,27
2023-12-03T09:23:03.303Z,37
2023-12-03T09:25:33.655Z,44
2023-12-03T09:28:03.549Z,35
2023-12-03T09:30:34.222Z,34
2023-12-03T09:33:04.324Z,32
2023-12-03T09:35:34.429Z,27
2023-12-03T09:38:05.069Z,25
2023-12-03T09:40:35.657Z,28
2023-12-03T09:43:06.560Z,26
2023-12-03T09:45:35.801Z,29
2023-12-03T09:48:05.185Z,42
2023-12-03T09:50:36.053Z,52
2023-12-03T09:53:06.804Z,84
2023-12-03T09:55:37.363Z,34
2023-12-03T09:58:07.769Z,52
2023-12-03T10:00:37.999Z,43
2023-12-03T10:03:08.188Z,25
2023-12-03T10:05:38.454Z,33
2023-12-03T10:08:09.305Z,21
2023-12-03T10:10:39.658Z,36
2023-12-03T10:13:09.935Z,23
2023-12-03T10:15:40.128Z,32
2023-12-03T10:18:10.595Z,37
2023-12-03T10:20:40.747Z,43
2023-12-03T10:23:10.985Z,41
2023-12-03T10:25:41.629Z,28
2023-12-03T10:28:11.908Z,30
2023-12-03T10:30:42.215Z,36
2023-12-03T10:33:12.346Z,31
2023-12-03T10:35:42.407Z,29
2023-12-03T10:38:12.861Z,33
2023-12-03T10:40:43.467Z,28
2023-12-03T10:43:13.807Z,32
2023-12-03T10:45:44.795Z,29
2023-12-03T10:48:15.075Z,32
2023-12-03T10:50:45.348Z,29
2023-12-03T10:53:19.869Z,31
2023-12-03T10:55:50.514Z,101
2023-12-03T10:58:20.884Z,48
2023-12-03T11:00:51.192Z,69
2023-12-03T11:03:21.872Z,42
2023-12-03T11:05:52.157Z,38
2023-12-03T11:08:22.242Z,32
2023-12-03T11:10:52.388Z,35
2023-12-03T11:13:26.706Z,32
2023-12-03T11:15:52.784Z,28
2023-12-03T11:18:21.438Z,37
2023-12-03T11:20:51.378Z,30
2023-12-03T11:23:20.502Z,31
2023-12-03T11:25:50.639Z,35
2023-12-03T11:28:20.827Z,34
2023-12-03T11:30:51.085Z,31
2023-12-03T11:33:21.481Z,27
2023-12-03T11:35:51.296Z,28
2023-12-03T11:38:21.402Z,31
2023-12-03T11:40:51.529Z,43
2023-12-03T11:43:21.708Z,41
2023-12-03T11:45:51.827Z,32
2023-12-03T11:48:22.091Z,29
2023-12-03T11:50:52.152Z,36
2023-12-03T11:53:22.444Z,36
2023-12-03T11:55:52.674Z,36
2023-12-03T11:58:22.967Z,41
2023-12-03T12:00:53.134Z,40
2023-12-03T12:03:23.490Z,28
2023-12-03T12:05:53.920Z,30
2023-12-03T12:08:23.982Z,43
2023-12-03T12:10:54.916Z,51
2023-12-03T12:13:24.172Z,41
2023-12-03T12:15:54.209Z,33
2023-12-03T12:18:24.954Z,36
2023-12-03T12:20:54.428Z,23
2023-12-03T12:23:24.603Z,32
2023-12-03T12:25:54.581Z,32
2023-12-03T12:28:24.910Z,35
2023-12-03T12:30:55.103Z,36
2023-12-03T12:33:25.334Z,36
2023-12-03T12:35:55.317Z,36
2023-12-03T12:38:25.359Z,30
2023-12-03T12:40:55.421Z,33
2023-12-03T12:43:25.382Z,31
2023-12-03T12:45:55.589Z,36
2023-12-03T12:48:26.207Z,37
2023-12-03T12:50:56.385Z,50
2023-12-03T12:53:26.845Z,48
2023-12-03T12:55:56.332Z,40
2023-12-03T12:58:26.381Z,54
2023-12-03T13:00:56.688Z,59
2023-12-03T13:03:26.896Z,39
2023-12-03T13:05:56.852Z,53
2023-12-03T13:08:26.853Z,55
2023-12-03T13:10:56.933Z,57
2023-12-03T13:13:27.166Z,44
2023-12-03T13:15:55.805Z,39
2023-12-03T13:18:26.184Z,33
2023-12-03T13:20:56.196Z,46
2023-12-03T13:23:26.752Z,45
2023-12-03T13:25:57.119Z,51
2023-12-03T13:28:27.360Z,41
2023-12-03T13:30:57.707Z,49
2023-12-03T13:33:27.780Z,33
2023-12-03T13:35:57.768Z,35
2023-12-03T13:38:27.983Z,43
2023-12-03T13:40:58.303Z,42
2023-12-03T13:43:26.728Z,49
2023-12-03T13:45:55.631Z,55
2023-12-03T13:48:26.332Z,68
2023-12-03T13:50:55.005Z,54
2023-12-03T13:53:25.291Z,61
2023-12-03T13:55:55.299Z,37
2023-12-03T15:37:55.679Z,74
2023-12-03T15:40:23.963Z,59
2023-12-03T15:42:54.916Z,52
2023-12-03T15:45:26.119Z,72
2023-12-03T15:47:58.080Z,77
2023-12-03T15:50:28.793Z,70
2023-12-03T15:52:59.054Z,53
2023-12-03T15:55:29.519Z,60
2023-12-03T15:58:02.424Z,52
2023-12-03T16:00:32.680Z,67
2023-12-03T16:03:04.189Z,79
2023-12-03T16:05:35.153Z,67
2023-12-03T16:08:09.240Z,57
2023-12-03T16:10:39.354Z,79
2023-12-03T16:13:08.696Z,61
2023-12-03T16:15:41.426Z,73
2023-12-03T16:18:16.793Z,58
2023-12-03T16:20:47.666Z,65
2023-12-03T16:23:18.274Z,77
2023-12-03T16:25:48.185Z,75
2023-12-03T16:28:18.828Z,75
2023-12-03T16:30:50.939Z,44
2023-12-03T16:33:26.692Z,76
2023-12-03T16:36:01.623Z,88
2023-12-03T16:38:34.112Z,63
2023-12-03T16:41:05.867Z,61
2023-12-03T16:43:39.723Z,64
2023-12-03T16:46:12.027Z,66
2023-12-03T16:48:42.574Z,65
2023-12-03T16:51:13.044Z,68
2023-12-03T16:53:52.341Z,66
2023-12-03T16:56:22.718Z,85
2023-12-03T16:58:56.959Z,103
2023-12-03T17:01:26.891Z,96
2023-12-03T17:03:56.647Z,103
2023-12-03T17:06:28.551Z,87
2023-12-03T17:08:59.693Z,92
2023-12-03T17:11:29.947Z,80
2023-12-03T17:14:02.646Z,76
2023-12-03T17:16:32.608Z,67
2023-12-03T17:19:02.877Z,67
2023-12-03T17:21:36.150Z,68
2023-12-03T17:24:07.972Z,70
2023-12-03T17:26:38.682Z,71
2023-12-03T17:29:08.543Z,71
2023-12-03T17:31:42.567Z,64
2023-12-03T17:34:13.817Z,75
2023-12-03T17:36:48.160Z,71
2023-12-03T17:39:18.749Z,64
2023-12-03T17:41:52.394Z,70
2023-12-03T17:44:26.833Z,68
2023-12-03T17:47:07.183Z,71
2023-12-03T17:49:35.982Z,71
2023-12-03T17:52:06.367Z,67
2023-12-03T17:54:36.027Z,70
2023-12-03T17:57:10.968Z,68
2023-12-03T17:59:41.354Z,64
2023-12-03T18:02:20.400Z,67
2023-12-03T18:04:49.370Z,63
2023-12-03T18:07:25.840Z,64
2023-12-03T18:09:57.273Z,81
2023-12-03T18:12:31.696Z,64
2023-12-03T18:15:02.882Z,68
2023-12-03T18:17:33.142Z,92
2023-12-03T18:20:03.432Z,77
2023-12-03T18:22:33.490Z,84
2023-12-03T18:25:03.940Z,83
2023-12-03T18:27:33.997Z,80
2023-12-03T18:30:03.979Z,107
2023-12-03T18:32:33.039Z,96
2023-12-03T18:35:02.923Z,99
2023-12-03T18:37:33.218Z,94
2023-12-03T18:40:03.670Z,85
2023-12-03T18:42:34.653Z,90
2023-12-03T18:45:04.714Z,91
2023-12-03T18:47:34.836Z,101
2023-12-03T18:50:09.748Z,104
2023-12-03T18:52:39.906Z,116
2023-12-03T18:55:10.985Z,123
2023-12-03T18:57:43.818Z,112
2023-12-03T19:00:14.183Z,117
2023-12-03T19:02:45.226Z,102
2023-12-03T19:05:15.657Z,122
2023-12-03T19:07:51.353Z,114
2023-12-03T19:10:21.698Z,126
2023-12-03T19:13:02.189Z,106
2023-12-03T19:15:33.812Z,116
2023-12-03T19:18:07.198Z,99
2023-12-03T19:20:43.328Z,112
2023-12-03T19:23:13.168Z,105
2023-12-03T19:25:43.862Z,111
2023-12-03T19:28:13.782Z,104
2023-12-03T19:30:47.963Z,107
2023-12-03T19:33:20.960Z,107
2023-12-03T19:35:49.544Z,119
2023-12-03T19:38:23.505Z,127
2023-12-03T19:40:53.582Z,116
2023-12-03T19:43:25.495Z,129
2023-12-03T19:45:55.733Z,133
2023-12-03T19:48:25.987Z,137
2023-12-03T19:50:59.556Z,165
2023-12-03T19:53:29.772Z,143
2023-12-03T19:56:05.091Z,139
2023-12-03T19:58:35.498Z,117
2023-12-03T20:01:06.892Z,174
2023-12-03T20:03:38.918Z,170
2023-12-03T20:06:10.217Z,153
2023-12-03T20:08:46.854Z,131
2023-12-03T20:11:16.898Z,122
2023-12-03T20:13:46.731Z,101
2023-12-03T20:16:17.365Z,88
2023-12-03T20:18:49.424Z,97
2023-12-03T20:21:20.932Z,101
2023-12-03T20:23:50.283Z,122
2023-12-03T20:26:19.657Z,155
2023-12-03T20:28:49.800Z,157
2023-12-03T20:31:21.663Z,165
2023-12-03T20:33:52.105Z,183
2023-12-03T20:36:24.077Z,173
2023-12-03T20:38:54.090Z,177
2023-12-03T20:41:25.169Z,158
2023-12-03T20:43:55.488Z,154
2023-12-03T20:46:25.567Z,149
2023-12-03T20:48:58.083Z,118
2023-12-03T20:51:27.995Z,128
2023-12-03T20:53:58.276Z,112
2023-12-03T20:56:28.591Z,104
2023-12-03T20:59:01.966Z,108
2023-12-03T21:01:36.126Z,88
2023-12-03T21:04:10.139Z,110
2023-12-03T21:06:40.221Z,102
2023-12-03T21:09:10.327Z,99
2023-12-03T21:11:40.735Z,103
2023-12-03T21:14:09.672Z,97
2023-12-03T21:16:44.507Z,97
2023-12-03T21:19:22.615Z,97
2023-12-03T21:21:52.476Z,105
2023-12-03T21:24:23.703Z,100
2023-12-03T21:26:54.098Z,100
2023-12-03T21:29:24.501Z,100
2023-12-03T21:32:03.267Z,107
2023-12-03T21:34:33.541Z,103
2023-12-03T21:37:06.393Z,101
2023-12-03T21:39:38.572Z,97
2023-12-03T21:42:09.715Z,99
2023-12-03T21:44:39.702Z,100
2023-12-03T21:47:10.819Z,93
2023-12-03T21:49:40.622Z,96
2023-12-03T21:52:10.981Z,105
2023-12-03T21:54:40.932Z,104
2023-12-03T21:57:14.524Z,104
2023-12-03T22:02:27.293Z,102
2023-12-03T22:04:57.276Z,102
2023-12-03T22:07:30.072Z,108
2023-12-03T22:10:02.454Z,115
2023-12-03T22:12:33.496Z,104
2023-12-03T22:17:38.846Z,133
2023-12-03T22:20:08.806Z,154
2023-12-03T22:22:43.998Z,137
2023-12-03T22:25:14.166Z,148
2023-12-03T22:27:46.124Z,155
2023-12-03T22:30:16.921Z,155
2023-12-03T22:32:50.894Z,147
2023-12-03T22:35:20.682Z,139
2023-12-03T22:37:53.795Z,171
2023-12-03T22:40:26.977Z,173
2023-12-03T22:42:57.289Z,175
2023-12-03T22:45:30.241Z,179
2023-12-03T22:48:00.695Z,164
2023-12-03T22:50:33.696Z,176
2023-12-03T22:53:04.148Z,168
2023-12-03T22:55:34.183Z,144
2023-12-03T22:58:04.653Z,157
2023-12-03T23:03:09.061Z,156
2023-12-03T23:05:39.594Z,170
2023-12-03T23:08:12.308Z,148
2023-12-03T23:10:48.852Z,151
2023-12-03T23:13:18.754Z,154
2023-12-03T23:15:47.731Z,137
2023-12-03T23:18:18.093Z,146
2023-12-03T23:20:49.187Z,137
2023-12-03T23:23:21.694Z,125
2023-12-03T23:25:53.650Z,139
2023-12-03T23:28:27.847Z,139
2023-12-03T23:31:01.105Z,134
2023-12-03T23:33:31.377Z,145
2023-12-03T23:36:02.975Z,144
2023-12-03T23:38:33.528Z,138
2023-12-03T23:41:08.020Z,148
2023-12-03T23:43:41.304Z,150
2023-12-03T23:46:11.590Z,148
2023-12-03T23:48:43.708Z,153
2023-12-03T23:51:13.979Z,146
2023-12-03T23:53:44.558Z,153
2023-12-03T23:56:16.417Z,148
2023-12-03T23:58:47.041Z,155
